Shanghai, Shanghai

20:54 CST le 30 Mars 2015 (GMT +0800)
eric | | Change Station
CLOSE
Current Station
Stations météorologiques personnelles
Location: 上海, 上海市
Altitude: 23 ft
Stations météo à proximité

Alt. 23 ft 31.32 °N, 121.47 °E | Updated 20 seconds ago

Scattered Clouds
Nuages épars
60.6 ° F
Paraît 60.6 ° F
N
0.9
Vent Variable Vent de Est
Gusts 2.5 mph

Aujourd'hui
Haut(e) -- | Bas -- ° F
--% Risque de précip.
Hier
Haut(e) -- | Bas -- ° F
Precip. -- pouce
5:46 AM 6:11 PM
Lune gibbeuse croissante, 79% visible
Pression 29.92 pouce
Visibilité 6.2 Miles terrestres
Nuages Nuages épars 1000 ft
Point de rosée 59 ° F
Humidité 93%
Précipitations 0.00 pouce
Profondeur de la couche neigeuse Non disponible.
UV 0.0 sur 12
Pollen Non disponible.
Qualité de l'air Non disponible.
Flu Activity Non disponible.
METAR ZSSS 301230Z 14003MPS 9999 SCT010 16/15 Q1013 NOSIG

More Conditions Fewer Conditions

Pression 29.92 pouce
Visibilité 6.2 Miles terrestres
Nuages Nuages épars 1000 ft
Point de rosée 59 ° F
Humidité 93%
Précipitations 0.00 pouce
Profondeur de la couche neigeuse Non disponible.
UV 0.0 sur 12
Pollen Non disponible.
Qualité de l'air Non disponible.
Flu Activity Non disponible.
METAR ZSSS 301230Z 14003MPS 9999 SCT010 16/15 Q1013 NOSIG

More Conditions Fewer Conditions

10-Day Weather Forecast

Almanac

Astronomie

Mar. 30, 2015 Lever Coucher
Temps réel
Crépuscule civil
Crépuscule nautique
Crépuscule astronomique
Lune
Durée de lumière visible
Longueur du jour
Tomorrow will be .
, % of the Moon is Illuminated

Extrêmes aujourd'hui

Country Highs Country Lows

Community

WunderPhotos

Upload Photos

1,809,464 Photos téléchargées !

WunderBlogs® & News

Nearby

Qualité de l'air

  Qualité de l'air Indice de la qualité de l'air Polluant
Not available.

Épaisseur de neige

Station Depth Altitude

Activité sismique

Ville Distance Mag. Time & Date
Minimum magnitude displayed is 2.5.

Températures des eaux côtières

Lieu Température

Stations

Stations météo à proximité

Emplacement de la station Température Refroidissement éolien Point de rosée Humidité Vent Precip. Alt. Mise à jour Type